Terminal Aerodrome Forecast
Issued by NWS

Home | Current Version | Previous Version | Text Only | Print | Product List | Glossary On
Versions: 1 2 3 4 5 6 7 8 9 10 11 12 13 14 15 16 17 18
614
FTUS43 KDTX 101722
TAFDET
TAF
KDET 101722Z 1018/1118 24012KT P6SM BKN030 BKN050
      TEMPO 1018/1022 P6SM -SHSN OVC025
     FM102200 23012KT P6SM BKN050
     FM110000 22008KT P6SM SCT035 OVC120
     FM110600 20005KT 3SM -SN BKN025 OVC040
     FM111000 18008KT 2SM -SN OVC015
     FM111600 16010KT 3/4SM -SN OVC010=

USA.gov is the U.S. government's official web portal to all federal, state and local government web resources and services.